createdAt,value
2017-11-18T00:00:13.724Z,97.69
2017-11-18T00:01:13.759Z,98.16
2017-11-18T00:02:13.801Z,98.07
2017-11-18T00:03:13.827Z,98.25
2017-11-18T00:04:13.856Z,97.59
2017-11-18T00:05:13.896Z,97.21
2017-11-18T00:06:13.924Z,98.16
2017-11-18T00:07:13.957Z,97.69
2017-11-18T00:08:13.986Z,97.88
2017-11-18T00:09:14.024Z,98.16
2017-11-18T00:10:14.055Z,97.78
2017-11-18T00:11:14.088Z,97.69
2017-11-18T00:12:14.124Z,97.50
2017-11-18T00:13:14.155Z,97.50
2017-11-18T00:14:14.185Z,97.31
2017-11-18T00:15:14.238Z,97.59
2017-11-18T00:16:14.254Z,97.88
2017-11-18T00:17:14.288Z,97.97
2017-11-18T00:18:14.322Z,97.97
2017-11-18T00:19:14.361Z,97.97
2017-11-18T00:20:14.387Z,97.78
2017-11-18T00:21:14.429Z,97.69
2017-11-18T00:22:14.509Z,97.97
2017-11-18T00:23:14.492Z,97.88
2017-11-18T00:24:14.598Z,97.69
2017-11-18T00:25:14.574Z,98.16
2017-11-18T00:26:14.588Z,97.78
2017-11-18T00:27:14.628Z,98.07
2017-11-18T00:28:14.658Z,98.07
2017-11-18T00:29:14.693Z,98.44
2017-11-18T00:30:14.722Z,99.01
2017-11-18T00:31:14.752Z,98.35
2017-11-18T00:32:14.790Z,97.69
2017-11-18T00:33:14.880Z,97.78
2017-11-18T00:34:14.850Z,97.59
2017-11-18T00:35:14.892Z,98.07
2017-11-18T00:36:14.915Z,97.50
2017-11-18T00:37:14.960Z,97.50
2017-11-18T00:38:14.993Z,97.78
2017-11-18T00:39:15.017Z,97.50
2017-11-18T00:40:15.056Z,97.78
2017-11-18T00:41:15.086Z,97.69
2017-11-18T00:42:15.223Z,97.31
2017-11-18T00:43:15.152Z,97.50
2017-11-18T00:44:15.191Z,97.12
2017-11-18T00:45:15.220Z,96.55
2017-11-18T00:46:15.247Z,97.12
2017-11-18T00:47:15.292Z,96.92
2017-11-18T00:48:15.316Z,96.64
2017-11-18T00:49:15.348Z,97.21
2017-11-18T00:50:15.388Z,97.78
2017-11-18T00:51:15.415Z,97.69
2017-11-18T00:52:15.459Z,97.21
2017-11-18T00:53:15.486Z,97.31
2017-11-18T00:54:15.515Z,97.02
2017-11-18T00:55:15.552Z,97.50
2017-11-18T00:56:15.585Z,97.02
2017-11-18T00:57:15.618Z,97.40
2017-11-18T00:58:15.648Z,97.21
2017-11-18T00:59:15.682Z,97.50
2017-11-18T01:00:15.719Z,97.21
2017-11-18T01:01:15.750Z,97.12
2017-11-18T01:02:15.787Z,96.73
2017-11-18T01:03:15.832Z,97.02
2017-11-18T01:04:15.852Z,97.12
2017-11-18T01:05:15.898Z,97.21
2017-11-18T01:06:15.921Z,97.31
2017-11-18T01:07:15.947Z,97.50
2017-11-18T01:08:15.982Z,97.31
2017-11-18T01:09:16.023Z,97.59
2017-11-18T01:10:16.047Z,97.21
2017-11-18T01:11:16.083Z,96.83
2017-11-18T01:12:16.117Z,97.21
2017-11-18T01:13:16.147Z,97.21
2017-11-18T01:14:16.183Z,97.12
2017-11-18T01:15:16.222Z,96.17
2017-11-18T01:16:16.246Z,96.17
2017-11-18T01:17:16.280Z,96.36
2017-11-18T01:18:16.320Z,95.98
2017-11-18T01:19:16.353Z,95.88
2017-11-18T01:20:16.500Z,96.64
2017-11-18T01:21:16.412Z,97.21
2017-11-18T01:22:16.451Z,97.02
2017-11-18T01:23:16.481Z,96.55
2017-11-18T01:24:16.512Z,96.64
2017-11-18T01:25:16.549Z,96.83
2017-11-18T01:26:16.582Z,96.31
2017-11-18T01:27:16.667Z,95.88
2017-11-18T01:28:16.648Z,95.88
2017-11-18T01:29:16.743Z,96.55
2017-11-18T01:30:16.718Z,95.88
2017-11-18T01:31:16.765Z,95.98
2017-11-18T01:32:16.780Z,95.88
2017-11-18T01:33:16.816Z,96.36
2017-11-18T01:34:16.849Z,96.50
2017-11-18T01:35:16.880Z,96.03
2017-11-18T01:36:16.924Z,96.59
2017-11-18T01:37:16.949Z,96.97
2017-11-18T01:38:17.000Z,96.08
2017-11-18T01:39:17.020Z,95.98
2017-11-18T01:40:17.055Z,96.45
2017-11-18T01:41:17.084Z,95.93
2017-11-18T01:42:17.113Z,96.73
2017-11-18T01:43:17.159Z,95.98
2017-11-18T01:44:17.190Z,96.17
2017-11-18T01:45:17.219Z,95.31
2017-11-18T01:46:17.247Z,95.41
2017-11-18T01:47:17.282Z,95.50
2017-11-18T01:48:17.321Z,95.50
2017-11-18T01:49:17.353Z,95.98
2017-11-18T01:50:17.382Z,96.08
2017-11-18T01:51:17.419Z,96.26
2017-11-18T01:52:17.454Z,96.45
2017-11-18T01:53:17.484Z,96.55
2017-11-18T01:54:17.522Z,96.73
2017-11-18T01:55:17.549Z,97.02
2017-11-18T01:56:17.588Z,97.12
2017-11-18T01:57:17.620Z,97.12
2017-11-18T01:58:17.648Z,97.02
2017-11-18T01:59:17.685Z,97.02
2017-11-18T02:00:17.716Z,97.40
2017-11-18T02:01:17.751Z,96.83
2017-11-18T02:02:17.785Z,98.07
2017-11-18T02:03:17.823Z,97.31
2017-11-18T02:04:17.850Z,97.40
2017-11-18T02:05:17.886Z,97.12
2017-11-18T02:06:17.920Z,97.50
2017-11-18T02:07:17.951Z,96.83
2017-11-18T02:08:17.992Z,97.88
2017-11-18T02:09:18.027Z,97.50
2017-11-18T02:10:18.050Z,98.16
2017-11-18T02:11:18.084Z,98.63
2017-11-18T02:12:18.129Z,98.30
2017-11-18T02:13:18.150Z,98.30
2017-11-18T02:14:18.191Z,98.58
2017-11-18T02:15:18.216Z,98.58
2017-11-18T02:16:18.256Z,99.15
2017-11-18T02:17:18.283Z,99.15
2017-11-18T02:18:18.319Z,99.25
2017-11-18T02:19:18.350Z,98.96
2017-11-18T02:20:18.382Z,99.15
2017-11-18T02:21:18.418Z,99.53
2017-11-18T02:22:18.454Z,99.99
2017-11-18T02:23:18.480Z,99.99
2017-11-18T02:24:18.514Z,99.99
2017-11-18T02:25:18.660Z,99.96
2017-11-18T02:26:18.582Z,99.99
2017-11-18T02:27:18.638Z,99.99
2017-11-18T02:28:18.648Z,99.99
2017-11-18T02:29:18.685Z,99.86
2017-11-18T02:30:18.716Z,99.48
2017-11-18T02:31:18.746Z,99.77
2017-11-18T02:32:18.782Z,99.99
2017-11-18T02:33:18.813Z,99.99
2017-11-18T02:34:18.842Z,99.99
2017-11-18T02:35:18.882Z,99.99
2017-11-18T02:36:18.969Z,99.99
2017-11-18T02:37:18.951Z,99.99
2017-11-18T02:38:18.973Z,99.99
2017-11-18T02:39:19.009Z,99.99
2017-11-18T02:40:19.042Z,99.99
2017-11-18T02:41:19.080Z,99.99
2017-11-18T02:42:19.105Z,99.99
2017-11-18T02:43:19.145Z,99.99
2017-11-18T02:44:19.174Z,99.99
2017-11-18T02:45:19.271Z,99.99
2017-11-18T02:46:19.236Z,99.99
2017-11-18T02:47:19.270Z,99.99
2017-11-18T02:48:19.297Z,99.99
2017-11-18T02:49:19.335Z,99.99
2017-11-18T02:50:19.363Z,99.99
2017-11-18T02:51:19.394Z,99.99
2017-11-18T02:52:19.437Z,99.99
2017-11-18T02:53:19.465Z,99.99
2017-11-18T02:54:19.514Z,99.99
2017-11-18T02:55:19.526Z,99.99
2017-11-18T02:56:19.567Z,99.99
2017-11-18T02:57:19.596Z,99.99
2017-11-18T02:58:19.625Z,99.99
2017-11-18T02:59:19.654Z,99.99
2017-11-18T03:00:19.690Z,99.99
2017-11-18T03:01:19.719Z,99.99
2017-11-18T03:02:19.754Z,99.99
2017-11-18T03:03:19.785Z,99.99
2017-11-18T03:04:19.821Z,99.99
2017-11-18T03:05:19.860Z,99.99
2017-11-18T03:06:19.894Z,99.99
2017-11-18T03:07:19.923Z,99.99
2017-11-18T03:08:19.947Z,99.99
2017-11-18T03:09:19.978Z,99.99
2017-11-18T03:10:20.041Z,99.99
2017-11-18T03:11:20.036Z,99.99
2017-11-18T03:12:20.070Z,99.99
2017-11-18T03:13:20.105Z,99.99
2017-11-18T03:14:20.135Z,99.99
2017-11-18T03:15:20.168Z,99.99
2017-11-18T03:16:20.209Z,99.99
2017-11-18T03:17:20.230Z,99.99
2017-11-18T03:18:20.264Z,99.99
2017-11-18T03:19:20.295Z,99.99
2017-11-18T03:20:20.325Z,99.99
2017-11-18T03:21:20.361Z,99.99
2017-11-18T03:22:20.392Z,99.99
2017-11-18T03:23:20.560Z,99.99
2017-11-18T03:24:20.455Z,99.99
2017-11-18T03:25:20.516Z,99.99
2017-11-18T03:26:20.519Z,99.99
2017-11-18T03:27:20.548Z,99.99
2017-11-18T03:28:20.581Z,99.99
2017-11-18T03:29:20.610Z,99.99
2017-11-18T03:30:20.660Z,99.99
2017-11-18T03:31:20.677Z,99.99
2017-11-18T03:32:20.709Z,99.99
2017-11-18T03:33:20.737Z,99.99
2017-11-18T03:34:20.900Z,99.99
2017-11-18T03:35:20.802Z,99.99
2017-11-18T03:36:20.837Z,99.99
2017-11-18T03:37:20.867Z,99.99
2017-11-18T03:38:20.897Z,99.99
2017-11-18T03:39:20.928Z,99.99
2017-11-18T03:40:20.961Z,99.99
2017-11-18T03:41:20.998Z,99.99
2017-11-18T03:42:21.027Z,99.99
2017-11-18T03:43:21.154Z,99.99
2017-11-18T03:44:21.086Z,99.99
2017-11-18T03:45:21.120Z,99.99
2017-11-18T03:46:21.152Z,99.99
2017-11-18T03:47:21.192Z,99.99
2017-11-18T03:48:21.216Z,99.99
2017-11-18T03:49:21.249Z,99.99
2017-11-18T03:50:21.276Z,99.99
2017-11-18T03:51:21.312Z,99.99
2017-11-18T03:52:21.347Z,99.99
2017-11-18T03:53:21.373Z,99.99
2017-11-18T03:54:21.416Z,99.99
2017-11-18T03:55:21.443Z,99.99
2017-11-18T03:56:21.471Z,99.99
2017-11-18T03:57:21.498Z,99.99
2017-11-18T03:58:21.534Z,99.99
2017-11-18T03:59:21.565Z,99.99
2017-11-18T04:00:21.596Z,99.99
2017-11-18T04:01:21.635Z,99.99
2017-11-18T04:02:21.658Z,99.99
2017-11-18T04:03:21.691Z,99.99
2017-11-18T04:04:21.720Z,99.99
2017-11-18T04:05:21.760Z,99.99
2017-11-18T04:06:21.790Z,99.99
2017-11-18T04:07:21.817Z,99.99
2017-11-18T04:08:21.850Z,99.99
2017-11-18T04:09:21.881Z,99.99
2017-11-18T04:10:21.913Z,99.99
2017-11-18T04:11:21.945Z,99.99
2017-11-18T04:12:21.980Z,99.99
2017-11-18T04:13:22.009Z,99.99
2017-11-18T04:14:22.040Z,99.99
2017-11-18T04:15:22.072Z,99.99
2017-11-18T04:16:22.105Z,99.99
2017-11-18T04:17:22.135Z,99.99
2017-11-18T04:18:22.178Z,99.99
2017-11-18T04:19:22.201Z,99.99
2017-11-18T04:20:22.234Z,99.99
2017-11-18T04:21:22.295Z,99.99
2017-11-18T04:22:22.293Z,99.99
2017-11-18T04:23:22.329Z,99.99
2017-11-18T04:24:22.359Z,99.99
2017-11-18T04:25:22.391Z,99.99
2017-11-18T04:26:22.425Z,99.99
2017-11-18T04:27:22.454Z,99.99
2017-11-18T04:28:22.485Z,99.99
2017-11-18T04:29:22.519Z,99.99
2017-11-18T04:30:22.552Z,99.99
2017-11-18T04:31:22.583Z,99.99
2017-11-18T04:32:22.695Z,99.99
2017-11-18T04:33:22.644Z,99.99
2017-11-18T04:34:22.679Z,99.99
2017-11-18T04:35:22.712Z,99.99
2017-11-18T04:36:22.751Z,99.99
2017-11-18T04:37:22.771Z,99.99
2017-11-18T04:38:22.805Z,99.99
2017-11-18T04:39:22.840Z,99.99
2017-11-18T04:40:22.870Z,99.99
2017-11-18T04:41:22.909Z,99.99
2017-11-18T04:42:22.978Z,99.99
2017-11-18T04:43:22.983Z,99.99
2017-11-18T04:44:23.010Z,99.99
2017-11-18T04:45:23.039Z,99.99
2017-11-18T04:46:23.061Z,99.99
2017-11-18T04:47:23.097Z,99.99
2017-11-18T04:48:23.126Z,99.99
2017-11-18T04:49:23.160Z,99.99
2017-11-18T04:50:23.192Z,99.99
2017-11-18T04:51:23.222Z,99.99
2017-11-18T04:52:23.359Z,99.99
2017-11-18T04:53:23.291Z,99.99
2017-11-18T04:54:23.324Z,99.99
2017-11-18T04:55:23.350Z,99.96
2017-11-18T04:56:23.384Z,99.99
2017-11-18T04:57:23.417Z,99.99
2017-11-18T04:58:23.447Z,99.99
2017-11-18T04:59:23.490Z,99.99
2017-11-18T05:00:23.511Z,99.58
2017-11-18T05:01:23.544Z,98.54
2017-11-18T05:02:23.574Z,98.54
2017-11-18T05:03:23.606Z,98.72
2017-11-18T05:04:23.645Z,99.20
2017-11-18T05:05:23.672Z,99.48
2017-11-18T05:06:23.704Z,99.39
2017-11-18T05:07:23.737Z,99.67
2017-11-18T05:08:23.774Z,98.63
2017-11-18T05:09:23.799Z,98.72
2017-11-18T05:10:23.830Z,98.63
2017-11-18T05:11:23.865Z,99.29
2017-11-18T05:12:23.897Z,99.20
2017-11-18T05:13:23.931Z,99.48
2017-11-18T05:14:23.965Z,99.29
2017-11-18T05:15:23.993Z,99.67
2017-11-18T05:16:24.025Z,99.67
2017-11-18T05:17:24.059Z,99.29
2017-11-18T05:18:24.093Z,99.48
2017-11-18T05:19:24.123Z,99.20
2017-11-18T05:20:24.156Z,99.77
2017-11-18T05:21:24.212Z,99.86
2017-11-18T05:22:24.219Z,99.96
2017-11-18T05:23:24.253Z,99.86
2017-11-18T05:24:24.286Z,99.48
2017-11-18T05:25:24.316Z,99.20
2017-11-18T05:26:24.350Z,99.48
2017-11-18T05:27:24.378Z,99.99
2017-11-18T05:28:24.414Z,99.67
2017-11-18T05:29:24.445Z,99.58
2017-11-18T05:30:24.570Z,99.39
2017-11-18T05:31:24.509Z,99.29
2017-11-18T05:32:24.544Z,99.96
2017-11-18T05:33:24.583Z,99.77
2017-11-18T05:34:24.605Z,99.77
2017-11-18T05:35:24.639Z,99.77
2017-11-18T05:36:24.670Z,99.86
2017-11-18T05:37:24.700Z,99.96
2017-11-18T05:38:24.733Z,99.99
2017-11-18T05:39:24.777Z,99.58
2017-11-18T05:40:24.799Z,99.99
2017-11-18T05:41:24.853Z,99.99
2017-11-18T05:42:24.859Z,99.99
2017-11-18T05:43:24.903Z,99.86
2017-11-18T05:44:24.925Z,99.99
2017-11-18T05:45:24.957Z,99.58
2017-11-18T05:46:24.990Z,99.58
2017-11-18T05:47:25.026Z,99.99
2017-11-18T05:48:25.071Z,99.99
2017-11-18T05:49:25.085Z,99.67
2017-11-18T05:50:25.134Z,99.39
2017-11-18T05:51:25.149Z,99.58
2017-11-18T05:52:25.185Z,99.77
2017-11-18T05:53:25.222Z,99.77
2017-11-18T05:54:25.244Z,99.77
2017-11-18T05:55:25.310Z,99.20
2017-11-18T05:56:25.310Z,99.10
2017-11-18T05:57:25.353Z,99.29
2017-11-18T05:58:25.383Z,98.72
2017-11-18T05:59:25.409Z,99.20
2017-11-18T06:00:25.440Z,98.63
2017-11-18T06:01:25.477Z,98.06
2017-11-18T06:02:25.506Z,97.02
2017-11-18T06:03:25.539Z,97.78
2017-11-18T06:04:25.570Z,97.78
2017-11-18T06:05:25.602Z,97.59
2017-11-18T06:06:25.637Z,97.02
2017-11-18T06:07:25.665Z,96.64
2017-11-18T06:08:25.698Z,96.73
2017-11-18T06:09:25.729Z,97.78
2017-11-18T06:10:25.760Z,97.97
2017-11-18T06:11:25.796Z,98.06
2017-11-18T06:12:25.826Z,97.59
2017-11-18T06:13:25.858Z,97.30
2017-11-18T06:14:25.891Z,97.40
2017-11-18T06:15:25.926Z,97.21
2017-11-18T06:16:25.957Z,97.78
2017-11-18T06:17:25.988Z,97.87
2017-11-18T06:18:26.032Z,97.30
2017-11-18T06:19:26.052Z,96.73
2017-11-18T06:20:26.095Z,97.68
2017-11-18T06:21:26.118Z,97.21
2017-11-18T06:22:26.149Z,96.69
2017-11-18T06:23:26.181Z,97.16
2017-11-18T06:24:26.222Z,96.78
2017-11-18T06:25:26.247Z,96.59
2017-11-18T06:26:26.281Z,96.88
2017-11-18T06:27:26.314Z,96.78
2017-11-18T06:28:26.347Z,96.59
2017-11-18T06:29:26.376Z,96.50
2017-11-18T06:30:26.411Z,96.92
2017-11-18T06:31:26.440Z,96.73
2017-11-18T06:32:26.473Z,96.31
2017-11-18T06:33:26.506Z,97.16
2017-11-18T06:34:26.537Z,96.69
2017-11-18T06:35:26.571Z,96.88
2017-11-18T06:36:26.602Z,96.83
2017-11-18T06:37:26.639Z,96.88
2017-11-18T06:38:26.669Z,97.07
2017-11-18T06:39:26.759Z,96.88
2017-11-18T06:40:26.733Z,96.69
2017-11-18T06:41:26.764Z,97.07
2017-11-18T06:42:26.798Z,97.16
2017-11-18T06:43:26.830Z,97.45
2017-11-18T06:44:26.868Z,97.11
2017-11-18T06:45:26.897Z,97.16
2017-11-18T06:46:26.934Z,97.26
2017-11-18T06:47:26.960Z,97.73
2017-11-18T06:48:27.098Z,97.83
2017-11-18T06:49:27.023Z,97.78
2017-11-18T06:50:27.061Z,97.45
2017-11-18T06:51:27.088Z,98.02
2017-11-18T06:52:27.121Z,97.54
2017-11-18T06:53:27.153Z,97.49
2017-11-18T06:54:27.190Z,97.83
2017-11-18T06:55:27.219Z,97.54
2017-11-18T06:56:27.253Z,97.26
2017-11-18T06:57:27.295Z,97.45
2017-11-18T06:58:27.314Z,97.45
2017-11-18T06:59:27.355Z,98.02
2017-11-18T07:00:27.381Z,97.26
2017-11-18T07:01:27.425Z,97.64
2017-11-18T07:02:27.443Z,97.54
2017-11-18T07:03:27.479Z,96.69
2017-11-18T07:04:27.514Z,96.88
2017-11-18T07:05:27.552Z,97.35
2017-11-18T07:06:27.574Z,96.88
2017-11-18T07:07:27.609Z,97.64
2017-11-18T07:08:27.642Z,97.64
2017-11-18T07:09:27.670Z,97.73
2017-11-18T07:10:27.703Z,97.54
2017-11-18T07:11:27.742Z,97.54
2017-11-18T07:12:27.770Z,97.45
2017-11-18T07:13:27.806Z,97.54
2017-11-18T07:14:27.832Z,96.88
2017-11-18T07:15:27.871Z,96.78
2017-11-18T07:16:27.900Z,97.07
2017-11-18T07:17:27.931Z,96.78
2017-11-18T07:18:27.964Z,96.59
2017-11-18T07:19:27.996Z,96.59
2017-11-18T07:20:28.032Z,96.88
2017-11-18T07:21:28.059Z,96.59
2017-11-18T07:22:28.092Z,96.22
2017-11-18T07:23:28.132Z,96.31
2017-11-18T07:24:28.162Z,96.31
2017-11-18T07:25:28.192Z,96.50
2017-11-18T07:26:28.220Z,96.41
2017-11-18T07:27:28.258Z,96.41
2017-11-18T07:28:28.291Z,96.41
2017-11-18T07:29:28.320Z,96.88
2017-11-18T07:30:28.363Z,96.50
2017-11-18T07:31:28.385Z,96.50
2017-11-18T07:32:28.421Z,96.03
2017-11-18T07:33:28.499Z,96.03
2017-11-18T07:34:28.483Z,95.84
2017-11-18T07:35:28.536Z,96.03
2017-11-18T07:36:28.558Z,95.93
2017-11-18T07:37:28.584Z,95.84
2017-11-18T07:38:28.616Z,96.12
2017-11-18T07:39:28.646Z,95.74
2017-11-18T07:40:28.677Z,95.93
2017-11-18T07:41:28.709Z,96.03
2017-11-18T07:42:28.742Z,95.84
2017-11-18T07:43:28.776Z,96.50
2017-11-18T07:44:28.837Z,96.03
2017-11-18T07:45:28.843Z,96.59
2017-11-18T07:46:28.882Z,95.84
2017-11-18T07:47:28.905Z,95.84
2017-11-18T07:48:28.941Z,95.74
2017-11-18T07:49:28.980Z,95.36
2017-11-18T07:50:29.010Z,96.22
2017-11-18T07:51:29.038Z,95.36
2017-11-18T07:52:29.072Z,94.89
2017-11-18T07:53:29.102Z,94.89
2017-11-18T07:54:29.135Z,94.51
2017-11-18T07:55:29.174Z,94.79
2017-11-18T07:56:29.202Z,94.98
2017-11-18T07:57:29.232Z,94.89
2017-11-18T07:58:29.267Z,94.70
2017-11-18T07:59:29.299Z,94.60
2017-11-18T08:00:29.339Z,94.32
2017-11-18T08:01:29.366Z,94.51
2017-11-18T08:02:29.397Z,94.98
2017-11-18T08:03:29.428Z,94.04
2017-11-18T08:04:29.462Z,94.23
2017-11-18T08:05:29.495Z,94.70
2017-11-18T08:06:29.541Z,94.32
2017-11-18T08:07:29.559Z,94.04
2017-11-18T08:08:29.594Z,94.42
2017-11-18T08:09:29.631Z,94.79
2017-11-18T08:10:29.658Z,94.51
2017-11-18T08:11:29.699Z,94.51
2017-11-18T08:12:29.724Z,94.23
2017-11-18T08:13:29.757Z,93.84
2017-11-18T08:14:29.787Z,94.70
2017-11-18T08:15:29.824Z,94.51
2017-11-18T08:16:29.854Z,94.51
2017-11-18T08:17:29.893Z,94.60
2017-11-18T08:18:29.921Z,94.23
2017-11-18T08:19:29.954Z,93.94
2017-11-18T08:20:29.987Z,94.51
2017-11-18T08:21:30.016Z,94.51
2017-11-18T08:22:30.052Z,94.51
2017-11-18T08:23:30.085Z,94.32
2017-11-18T08:24:30.116Z,94.13
2017-11-18T08:25:30.150Z,94.42
2017-11-18T08:26:30.185Z,94.13
2017-11-18T08:27:30.215Z,94.04
2017-11-18T08:28:30.247Z,93.46
2017-11-18T08:29:30.292Z,94.18
2017-11-18T08:30:30.313Z,93.75
2017-11-18T08:31:30.373Z,93.84
2017-11-18T08:32:30.381Z,93.80
2017-11-18T08:33:30.416Z,93.99
2017-11-18T08:34:30.457Z,93.61
2017-11-18T08:35:30.478Z,93.89
2017-11-18T08:36:30.511Z,93.32
2017-11-18T08:37:30.545Z,93.61
2017-11-18T08:38:30.579Z,93.51
2017-11-18T08:39:30.611Z,93.51
2017-11-18T08:40:30.644Z,93.32
2017-11-18T08:41:30.676Z,92.85
2017-11-18T08:42:30.734Z,92.85
2017-11-18T08:43:30.741Z,93.04
2017-11-18T08:44:30.775Z,92.57
2017-11-18T08:45:30.806Z,92.47
2017-11-18T08:46:30.837Z,92.28
2017-11-18T08:47:30.876Z,92.66
2017-11-18T08:48:30.902Z,92.47
2017-11-18T08:49:30.936Z,91.42
2017-11-18T08:50:30.968Z,91.99
2017-11-18T08:51:31.026Z,91.42
2017-11-18T08:52:31.045Z,91.33
2017-11-18T08:53:31.131Z,91.71
2017-11-18T08:54:31.102Z,90.76
2017-11-18T08:55:31.135Z,90.86
2017-11-18T08:56:31.169Z,91.05
2017-11-18T08:57:31.200Z,90.48
2017-11-18T08:58:31.238Z,90.57
2017-11-18T08:59:31.273Z,90.48
2017-11-18T09:00:31.332Z,89.91
2017-11-18T09:01:31.332Z,89.53
2017-11-18T09:02:31.381Z,89.81
2017-11-18T09:03:31.401Z,89.72
2017-11-18T09:04:31.462Z,89.72
2017-11-18T09:05:31.470Z,89.72
2017-11-18T09:06:31.511Z,89.62
2017-11-18T09:07:31.532Z,90.00
2017-11-18T09:08:31.582Z,89.91
2017-11-18T09:09:31.602Z,89.91
2017-11-18T09:10:31.631Z,89.62
2017-11-18T09:11:31.666Z,90.00
2017-11-18T09:12:31.720Z,89.25
2017-11-18T09:13:31.733Z,89.43
2017-11-18T09:14:31.773Z,89.29
2017-11-18T09:15:31.804Z,89.29
2017-11-18T09:16:31.843Z,90.05
2017-11-18T09:17:31.890Z,89.48
2017-11-18T09:18:31.900Z,89.39
2017-11-18T09:19:31.933Z,89.20
2017-11-18T09:20:31.989Z,88.91
2017-11-18T09:21:32.001Z,88.06
2017-11-18T09:22:32.039Z,88.34
2017-11-18T09:23:32.069Z,88.06
2017-11-18T09:24:32.109Z,87.87
2017-11-18T09:25:32.138Z,88.34
2017-11-18T09:26:32.169Z,88.15
2017-11-18T09:27:32.204Z,88.34
2017-11-18T09:28:32.234Z,87.96
2017-11-18T09:29:32.272Z,88.15
2017-11-18T09:30:32.299Z,88.24
2017-11-18T09:31:32.332Z,87.87
2017-11-18T09:32:32.369Z,87.96
2017-11-18T09:33:32.401Z,88.24
2017-11-18T09:34:32.439Z,88.34
2017-11-18T09:35:32.471Z,86.72
2017-11-18T09:36:32.512Z,86.91
2017-11-18T09:37:32.536Z,86.82
2017-11-18T09:38:32.642Z,86.35
2017-11-18T09:39:32.601Z,86.54
2017-11-18T09:40:32.657Z,86.68
2017-11-18T09:41:32.668Z,86.87
2017-11-18T09:42:32.705Z,86.96
2017-11-18T09:43:32.739Z,85.35
2017-11-18T09:44:32.778Z,84.78
2017-11-18T09:45:32.805Z,84.78
2017-11-18T09:46:32.841Z,84.21
2017-11-18T09:47:32.876Z,83.45
2017-11-18T09:48:32.911Z,82.88
2017-11-18T09:49:33.019Z,82.31
2017-11-18T09:50:32.972Z,82.69
2017-11-18T09:51:33.025Z,82.88
2017-11-18T09:52:33.042Z,83.26
2017-11-18T09:53:33.074Z,83.26
2017-11-18T09:54:33.110Z,82.69
2017-11-18T09:55:33.149Z,83.45
2017-11-18T09:56:33.179Z,83.36
2017-11-18T09:57:33.209Z,82.97
2017-11-18T09:58:33.300Z,82.21
2017-11-18T09:59:33.291Z,81.65
2017-11-18T10:00:33.319Z,81.55
2017-11-18T10:01:33.355Z,80.88
2017-11-18T10:02:33.383Z,81.21
2017-11-18T10:03:33.420Z,80.74
2017-11-18T10:04:33.450Z,79.31
2017-11-18T10:05:33.487Z,78.23
2017-11-18T10:06:33.525Z,79.31
2017-11-18T10:07:33.561Z,79.84
2017-11-18T10:08:33.594Z,80.41
2017-11-18T10:09:33.626Z,80.41
2017-11-18T10:10:33.668Z,81.65
2017-11-18T10:11:33.696Z,81.17
2017-11-18T10:12:33.729Z,80.98
2017-11-18T10:13:33.761Z,80.69
2017-11-18T10:14:33.794Z,80.41
2017-11-18T10:15:33.831Z,79.84
2017-11-18T10:16:33.871Z,79.36
2017-11-18T10:17:33.898Z,79.74
2017-11-18T10:18:33.931Z,79.65
2017-11-18T10:19:33.963Z,79.84
2017-11-18T10:20:34.011Z,80.22
2017-11-18T10:21:34.038Z,80.03
2017-11-18T10:22:34.071Z,78.80
2017-11-18T10:23:34.102Z,79.36
2017-11-18T10:24:34.145Z,79.65
2017-11-18T10:25:34.183Z,80.65
2017-11-18T10:26:34.206Z,80.88
2017-11-18T10:27:34.241Z,80.46
2017-11-18T10:28:34.276Z,79.90
2017-11-18T10:29:34.308Z,80.27
2017-11-18T10:30:34.359Z,79.80
2017-11-18T10:31:34.382Z,80.37
2017-11-18T10:32:34.414Z,80.27
2017-11-18T10:33:34.445Z,79.90
2017-11-18T10:34:34.577Z,80.65
2017-11-18T10:35:34.513Z,80.46
2017-11-18T10:36:34.653Z,80.84
2017-11-18T10:37:34.575Z,79.90
2017-11-18T10:38:34.612Z,80.18
2017-11-18T10:39:34.649Z,81.13
2017-11-18T10:40:34.686Z,81.88
2017-11-18T10:41:34.717Z,81.32
2017-11-18T10:42:34.957Z,81.23
2017-11-18T10:43:34.887Z,81.60
2017-11-18T10:44:34.820Z,81.04
2017-11-18T10:45:34.915Z,80.75
2017-11-18T10:46:34.883Z,80.18
2017-11-18T10:47:34.919Z,79.99
2017-11-18T10:48:34.954Z,80.18
2017-11-18T10:49:34.988Z,81.23
2017-11-18T10:50:35.019Z,81.23
2017-11-18T10:51:35.054Z,80.65
2017-11-18T10:52:35.086Z,80.56
2017-11-18T10:53:35.119Z,79.80
2017-11-18T10:54:35.194Z,80.18
2017-11-18T10:55:35.190Z,79.71
2017-11-18T10:56:35.230Z,80.56
2017-11-18T10:57:35.256Z,80.18
2017-11-18T10:58:35.286Z,80.94
2017-11-18T10:59:35.331Z,79.80
2017-11-18T11:00:35.356Z,79.61
2017-11-18T11:01:35.389Z,79.42
2017-11-18T11:02:35.430Z,79.04
2017-11-18T11:03:35.457Z,79.71
2017-11-18T11:04:35.489Z,79.71
2017-11-18T11:05:35.526Z,79.71
2017-11-18T11:06:35.557Z,79.52
2017-11-18T11:07:35.601Z,79.71
2017-11-18T11:08:35.625Z,80.56
2017-11-18T11:09:35.659Z,79.99
2017-11-18T11:10:35.715Z,79.90
2017-11-18T11:11:35.726Z,80.08
2017-11-18T11:12:35.763Z,80.46
2017-11-18T11:13:35.792Z,79.99
2017-11-18T11:14:35.826Z,80.94
2017-11-18T11:15:35.860Z,80.84
2017-11-18T11:16:35.898Z,80.27
2017-11-18T11:17:35.923Z,79.52
2017-11-18T11:18:35.961Z,79.61
2017-11-18T11:19:35.993Z,79.33
2017-11-18T11:20:36.030Z,80.27
2017-11-18T11:21:36.065Z,80.27
2017-11-18T11:22:36.095Z,80.37
2017-11-18T11:23:36.129Z,79.80
2017-11-18T11:24:36.166Z,80.56
2017-11-18T11:25:36.196Z,81.32
2017-11-18T11:26:36.232Z,81.60
2017-11-18T11:27:36.264Z,81.23
2017-11-18T11:28:36.299Z,80.37
2017-11-18T11:29:36.327Z,80.37
2017-11-18T11:30:36.369Z,80.46
2017-11-18T11:31:36.398Z,80.27
2017-11-18T11:32:36.431Z,81.70
2017-11-18T11:33:36.472Z,81.79
2017-11-18T11:34:36.508Z,81.60
2017-11-18T11:35:36.533Z,80.94
2017-11-18T11:36:36.572Z,81.41
2017-11-18T11:37:36.601Z,81.51
2017-11-18T11:38:36.632Z,80.94
2017-11-18T11:39:36.668Z,80.94
2017-11-18T11:40:36.701Z,80.84
2017-11-18T11:41:36.740Z,81.04
2017-11-18T11:42:36.767Z,81.60
2017-11-18T11:43:36.802Z,82.17
2017-11-18T11:44:36.837Z,81.79
2017-11-18T11:45:36.866Z,82.08
2017-11-18T11:46:36.901Z,81.79
2017-11-18T11:47:36.985Z,81.41
2017-11-18T11:48:36.971Z,81.51
2017-11-18T11:49:37.003Z,81.88
2017-11-18T11:50:37.151Z,81.60
2017-11-18T11:51:37.071Z,81.13
2017-11-18T11:52:37.106Z,81.32
2017-11-18T11:53:37.144Z,81.04
2017-11-18T11:54:37.170Z,80.46
2017-11-18T11:55:37.207Z,80.37
2017-11-18T11:56:37.237Z,80.84
2017-11-18T11:57:37.268Z,80.37
2017-11-18T11:58:37.300Z,80.27
2017-11-18T11:59:37.444Z,80.75
2017-11-18T12:00:37.371Z,81.04
2017-11-18T12:01:37.429Z,81.23
2017-11-18T12:02:37.437Z,80.46
2017-11-18T12:03:37.477Z,80.18
2017-11-18T12:04:37.505Z,80.65
2017-11-18T12:05:37.544Z,80.75
2017-11-18T12:06:37.572Z,80.27
2017-11-18T12:07:37.602Z,81.13
2017-11-18T12:08:37.652Z,79.90
2017-11-18T12:09:37.670Z,79.80
2017-11-18T12:10:37.704Z,79.80
2017-11-18T12:11:37.741Z,79.42
2017-11-18T12:12:37.770Z,79.90
2017-11-18T12:13:37.810Z,79.71
2017-11-18T12:14:37.840Z,79.90
2017-11-18T12:15:37.878Z,79.99
2017-11-18T12:16:37.903Z,79.61
2017-11-18T12:17:37.940Z,79.04
2017-11-18T12:18:37.978Z,79.33
2017-11-18T12:19:38.001Z,79.52
2017-11-18T12:20:38.039Z,79.42
2017-11-18T12:21:38.071Z,79.33
2017-11-18T12:22:38.102Z,78.66
2017-11-18T12:23:38.140Z,79.52
2017-11-18T12:24:38.171Z,79.71
2017-11-18T12:25:38.203Z,79.71
2017-11-18T12:26:38.239Z,79.61
2017-11-18T12:27:38.271Z,79.52
2017-11-18T12:28:38.305Z,79.42
2017-11-18T12:29:38.336Z,79.42
2017-11-18T12:30:38.382Z,79.23
2017-11-18T12:31:38.404Z,79.23
2017-11-18T12:32:38.434Z,78.56
2017-11-18T12:33:38.481Z,78.47
2017-11-18T12:34:38.513Z,78.47
2017-11-18T12:35:38.553Z,78.66
2017-11-18T12:36:38.578Z,79.52
2017-11-18T12:37:38.671Z,79.90
2017-11-18T12:38:38.644Z,79.42
2017-11-18T12:39:38.700Z,78.66
2017-11-18T12:40:38.705Z,78.47
2017-11-18T12:41:38.736Z,77.33
2017-11-18T12:42:38.773Z,77.71
2017-11-18T12:43:38.804Z,77.90
2017-11-18T12:44:38.841Z,78.47
2017-11-18T12:45:38.872Z,78.66
2017-11-18T12:46:39.042Z,78.28
2017-11-18T12:47:38.943Z,78.56
2017-11-18T12:48:39.061Z,79.71
2017-11-18T12:49:39.005Z,79.61
2017-11-18T12:50:39.049Z,79.42
2017-11-18T12:51:39.071Z,78.56
2017-11-18T12:52:39.105Z,78.56